Time;durP1;ratioP1;P1;durP2;ratioP2;P2;SDS_P1;SDS_P2;PMS_P1;PMS_P2;Temp;Humidity;BMP_temperature;BMP_pressure;BME280_temperature;BME280_humidity;BME280_pressure;Samples;Min_cycle;Max_cycle;Signal;HPM_P1;HPM_P2
2021/10/12 00:01:01;;;;;;;19.33;16.43;;;;;;;8.63;77.26;98005.75;6207040;28;20337;-75
2021/10/12 00:04:04;;;;;;;23.40;16.00;;;;;;;8.57;77.21;98003.53;6208460;28;20200;-75
2021/10/12 00:07:06;;;;;;;21.53;16.30;;;;;;;8.54;78.02;98017.72;6209349;28;20198;-75
2021/10/12 00:10:08;;;;;;;21.33;15.60;;;;;;;8.49;77.63;98009.28;6210047;28;20212;-75
2021/10/12 00:13:10;;;;;;;21.07;15.03;;;;;;;8.47;78.15;98006.78;6210394;28;20220;-75
2021/10/12 00:16:13;;;;;;;20.70;13.90;;;;;;;8.46;78.39;98014.78;6209921;28;20249;-75
2021/10/12 00:19:15;;;;;;;23.07;17.07;;;;;;;8.45;78.23;98007.81;6207549;28;20695;-75
2021/10/12 00:22:17;;;;;;;16.90;13.63;;;;;;;8.44;78.41;98012.25;6209976;28;20204;-75
2021/10/12 00:25:19;;;;;;;21.80;17.27;;;;;;;8.41;78.66;98016.84;6210382;28;20214;-75
2021/10/12 00:28:24;;;;;;;21.57;15.93;;;;;;;8.34;78.44;98008.53;6205541;28;20208;-75
2021/10/12 00:31:27;;;;;;;24.47;17.43;;;;;;;8.31;78.39;98006.09;6257911;28;20191;-75
2021/10/12 00:34:29;;;;;;;21.10;16.07;;;;;;;8.31;78.27;97999.97;6259593;28;20198;-74
2021/10/12 00:37:33;;;;;;;17.70;14.33;;;;;;;8.33;77.70;97990.22;6259879;28;20259;-75
2021/10/12 00:40:37;;;;;;;19.43;15.10;;;;;;;8.35;77.54;98004.13;6259237;28;20275;-75
2021/10/12 00:43:39;;;;;;;22.83;16.23;;;;;;;8.30;77.73;97998.28;6257629;28;20202;-75
2021/10/12 00:46:41;;;;;;;20.67;15.97;;;;;;;8.29;76.67;97992.16;6240694;28;20206;-75
2021/10/12 00:49:43;;;;;;;19.50;14.73;;;;;;;8.34;76.99;97995.38;6240475;28;20220;-75
2021/10/12 00:52:45;;;;;;;23.00;15.30;;;;;;;8.36;76.77;97992.66;6258289;28;20203;-75
2021/10/12 00:55:47;;;;;;;17.07;13.93;;;;;;;8.36;77.01;97992.66;6226963;28;20186;-76
2021/10/12 00:58:50;;;;;;;18.47;13.93;;;;;;;8.37;76.79;97986.47;6239227;28;20212;-75
2021/10/12 01:01:52;;;;;;;17.77;13.63;;;;;;;8.37;76.97;97982.03;6254217;28;20660;-76
2021/10/12 01:04:54;;;;;;;15.20;12.13;;;;;;;8.37;77.64;97987.31;6241380;28;20191;-76
2021/10/12 01:07:56;;;;;;;20.67;15.87;;;;;;;8.37;77.80;97984.66;6256983;28;20191;-75
2021/10/12 01:10:59;;;;;;;18.40;14.50;;;;;;;8.34;77.39;97978.75;6256456;28;20616;-76
2021/10/12 01:14:02;;;;;;;16.10;12.80;;;;;;;8.39;77.41;97984.53;6258061;28;20238;-76
2021/10/12 01:17:04;;;;;;;19.30;14.40;;;;;;;8.38;77.88;97975.84;6258057;28;20224;-75
2021/10/12 01:20:12;;;;;;;15.90;12.87;;;;;;;8.37;77.75;97975.94;6256686;28;20192;-74
2021/10/12 01:23:14;;;;;;;17.83;13.67;;;;;;;8.33;78.66;97980.53;6254586;28;20196;-74
2021/10/12 01:26:16;;;;;;;17.03;13.10;;;;;;;8.32;77.91;97972.75;6240874;28;20212;-75
2021/10/12 01:29:18;;;;;;;19.27;12.67;;;;;;;8.33;78.27;97963.94;6256757;28;20597;-74
2021/10/12 01:32:20;;;;;;;19.87;15.80;;;;;;;8.31;78.23;97971.91;6257566;28;20196;-75
2021/10/12 01:35:22;;;;;;;23.67;17.43;;;;;;;8.28;79.06;97971.25;6257465;28;20650;-74
2021/10/12 01:38:31;;;;;;;18.13;14.17;;;;;;;8.25;79.68;97966.19;6257174;28;20210;-75
2021/10/12 01:41:33;;;;;;;20.87;15.47;;;;;;;8.23;79.67;97971.56;6253924;28;20191;-75
2021/10/12 01:44:35;;;;;;;21.57;15.67;;;;;;;8.25;79.30;97963.56;6256652;28;20566;-75
2021/10/12 01:47:38;;;;;;;20.00;15.47;;;;;;;8.27;79.79;97961.69;6258200;28;20637;-75
2021/10/12 01:50:40;;;;;;;19.30;14.20;;;;;;;8.29;78.70;97959.78;6257063;28;20245;-75
2021/10/12 01:53:42;;;;;;;18.63;13.43;;;;;;;8.30;78.72;97957.03;6256557;28;20189;-74
2021/10/12 01:56:45;;;;;;;16.63;12.10;;;;;;;8.27;79.19;97952.00;6240136;28;20193;-74
2021/10/12 01:59:47;;;;;;;17.73;13.13;;;;;;;8.23;79.62;97945.25;6256434;28;20745;-75
2021/10/12 02:02:49;;;;;;;20.13;16.17;;;;;;;8.17;79.79;97956.19;6240458;28;20280;-75
2021/10/12 02:05:52;;;;;;;17.77;15.03;;;;;;;8.14;79.85;97948.50;6253214;28;20197;-74
2021/10/12 02:08:53;;;;;;;19.07;14.63;;;;;;;8.17;79.45;97950.09;6256464;28;20185;-74
2021/10/12 02:11:55;;;;;;;18.83;14.67;;;;;;;8.19;79.14;97938.50;6257713;28;20266;-74
2021/10/12 02:14:57;;;;;;;14.60;12.10;;;;;;;8.18;78.88;97928.97;6256651;28;20189;-74
2021/10/12 02:17:59;;;;;;;19.67;13.27;;;;;;;8.16;79.12;97922.97;6255637;28;20218;-74
2021/10/12 02:21:01;;;;;;;17.00;13.30;;;;;;;8.10;78.16;97929.44;6255550;28;20200;-73
2021/10/12 02:24:04;;;;;;;19.10;14.43;;;;;;;8.08;78.11;97933.16;6257475;28;20202;-74
2021/10/12 02:27:06;;;;;;;16.87;13.37;;;;;;;8.06;78.29;97927.16;6256056;28;20225;-75
2021/10/12 02:30:09;;;;;;;15.60;11.63;;;;;;;8.03;78.53;97925.56;6256470;28;20703;-75
2021/10/12 02:33:11;;;;;;;12.03;10.50;;;;;;;7.95;78.50;97930.47;6255182;28;21195;-75
2021/10/12 02:36:13;;;;;;;15.10;11.70;;;;;;;7.85;79.02;97918.88;6253157;28;20682;-75
2021/10/12 02:39:15;;;;;;;10.57;8.70;;;;;;;7.77;79.14;97929.06;6256041;28;20214;-75
2021/10/12 02:42:18;;;;;;;11.20;9.07;;;;;;;7.68;79.00;97917.38;6257086;28;20198;-74
2021/10/12 02:45:20;;;;;;;12.70;10.57;;;;;;;7.61;79.39;97916.06;6255981;28;20649;-75
2021/10/12 02:48:23;;;;;;;16.07;12.57;;;;;;;7.56;79.63;97912.06;6257675;28;20208;-74
2021/10/12 02:51:24;;;;;;;11.87;9.53;;;;;;;7.51;79.66;97906.25;6260620;28;20271;-74
2021/10/12 02:54:26;;;;;;;14.10;10.87;;;;;;;7.45;79.67;97906.66;6260360;28;20195;-74
2021/10/12 02:57:28;;;;;;;12.70;10.67;;;;;;;7.43;80.20;97898.03;6244450;28;20198;-73
2021/10/12 03:00:30;;;;;;;12.87;10.30;;;;;;;7.40;79.86;97902.53;6243724;28;20547;-73
2021/10/12 03:03:32;;;;;;;14.57;11.50;;;;;;;7.37;80.06;97905.34;6258376;28;20199;-73
2021/10/12 03:06:34;;;;;;;15.23;12.30;;;;;;;7.35;79.98;97896.72;6259891;28;20278;-72
2021/10/12 03:09:37;;;;;;;15.00;10.87;;;;;;;7.31;80.82;97897.84;6241703;28;20193;-73
2021/10/12 03:12:38;;;;;;;14.07;12.03;;;;;;;7.29;80.83;97907.59;6260058;28;20194;-73
2021/10/12 03:15:43;;;;;;;16.47;12.07;;;;;;;7.26;80.36;97896.47;6242732;28;20205;-73
2021/10/12 03:18:45;;;;;;;16.20;11.80;;;;;;;7.23;80.84;97894.03;6241476;28;20210;-73
2021/10/12 03:21:57;;;;;;;12.10;10.00;;;;;;;7.20;80.95;97900.31;6260135;28;20197;-73
2021/10/12 03:24:59;;;;;;;15.67;12.07;;;;;;;7.19;81.12;97888.13;6242634;28;20206;-73
2021/10/12 03:28:01;;;;;;;16.17;12.53;;;;;;;7.16;81.58;97882.25;6260396;28;20214;-73
2021/10/12 03:31:03;;;;;;;15.13;12.47;;;;;;;7.11;81.42;97885.16;6242906;28;20215;-73
2021/10/12 03:34:05;;;;;;;14.30;11.80;;;;;;;7.11;81.38;97881.69;6259545;28;20193;-74
2021/10/12 03:37:08;;;;;;;20.77;15.37;;;;;;;7.06;81.59;97889.03;6261067;28;20198;-73
2021/10/12 03:40:11;;;;;;;15.10;11.60;;;;;;;7.01;82.04;97886.66;6259031;28;20606;-74
2021/10/12 03:43:12;;;;;;;19.53;13.57;;;;;;;7.02;81.99;97880.47;6241129;28;20208;-73
2021/10/12 03:46:14;;;;;;;14.67;11.10;;;;;;;6.99;82.13;97880.66;6250378;28;20248;-73
2021/10/12 03:49:17;;;;;;;17.60;13.70;;;;;;;6.95;82.09;97882.66;6259132;28;20222;-73
2021/10/12 03:52:19;;;;;;;18.53;13.97;;;;;;;6.95;82.18;97879.19;6240023;28;20204;-74
2021/10/12 03:55:21;;;;;;;21.10;14.30;;;;;;;6.95;82.62;97881.81;6241956;28;20679;-74
2021/10/12 03:58:23;;;;;;;15.97;12.50;;;;;;;6.87;82.72;97878.84;6258915;28;20206;-73
2021/10/12 04:01:25;;;;;;;16.47;13.50;;;;;;;6.85;82.56;97878.06;6241952;28;20214;-73
2021/10/12 04:04:27;;;;;;;18.60;13.50;;;;;;;6.76;82.41;97878.66;6258886;28;20278;-73
2021/10/12 04:07:29;;;;;;;16.57;13.63;;;;;;;6.72;82.59;97866.66;6260616;28;20563;-73
2021/10/12 04:10:31;;;;;;;18.93;14.17;;;;;;;6.65;82.79;97874.06;6241300;28;20326;-73
2021/10/12 04:13:33;;;;;;;18.70;13.23;;;;;;;6.55;82.41;97871.16;6255263;28;20212;-73
2021/10/12 04:16:36;;;;;;;19.93;15.07;;;;;;;6.46;82.97;97869.09;6236966;28;20189;-76
2021/10/12 04:19:38;;;;;;;14.93;12.20;;;;;;;6.41;82.98;97863.28;6259115;28;20207;-73
2021/10/12 04:22:40;;;;;;;21.13;15.03;;;;;;;6.39;83.58;97864.34;6241231;28;20201;-73
2021/10/12 04:25:42;;;;;;;16.87;13.03;;;;;;;6.37;82.92;97872.28;6257708;28;20195;-73
2021/10/12 04:28:44;;;;;;;16.67;13.13;;;;;;;6.34;83.40;97861.13;6258125;28;21061;-74
2021/10/12 04:31:46;;;;;;;16.70;12.70;;;;;;;6.32;82.87;97865.63;6240964;28;20563;-75
2021/10/12 04:34:50;;;;;;;13.73;10.67;;;;;;;6.34;83.09;97861.97;6258094;28;20194;-72
2021/10/12 04:37:52;;;;;;;17.33;14.27;;;;;;;6.34;83.04;97854.13;6240295;28;20209;-73
2021/10/12 04:40:54;;;;;;;19.00;14.20;;;;;;;6.33;83.13;97849.81;6224810;28;20285;-73
2021/10/12 04:43:56;;;;;;;19.57;14.67;;;;;;;6.36;83.37;97857.50;6256402;28;20699;-74
2021/10/12 04:46:58;;;;;;;15.73;12.07;;;;;;;6.41;83.01;97846.72;6237188;28;20569;-74
2021/10/12 04:50:00;;;;;;;15.97;12.83;;;;;;;6.46;83.42;97842.88;6258873;28;20698;-73
2021/10/12 04:53:02;;;;;;;19.50;14.07;;;;;;;6.45;83.13;97838.59;6240931;28;20660;-74
2021/10/12 04:56:04;;;;;;;21.30;16.57;;;;;;;6.47;83.69;97844.56;6257006;28;20277;-74
2021/10/12 04:59:07;;;;;;;17.17;12.93;;;;;;;6.48;83.67;97830.53;6240016;28;20290;-74
2021/10/12 05:02:10;;;;;;;23.73;17.03;;;;;;;6.45;83.51;97833.34;6240990;28;20687;-74
2021/10/12 05:05:12;;;;;;;20.20;15.73;;;;;;;6.45;83.32;97837.75;6253924;28;20214;-74
2021/10/12 05:08:14;;;;;;;21.93;15.77;;;;;;;6.44;83.65;97839.50;6239549;28;20186;-74
2021/10/12 05:11:16;;;;;;;19.17;14.43;;;;;;;6.39;83.61;97831.06;6241164;28;20588;-74
2021/10/12 05:14:19;;;;;;;21.33;15.53;;;;;;;6.36;83.70;97839.16;6257071;28;20660;-73
2021/10/12 05:17:33;;;;;;;21.83;14.90;;;;;;;6.32;84.15;97835.00;6256615;28;20206;-74
2021/10/12 05:20:36;;;;;;;24.73;17.87;;;;;;;6.32;83.62;97837.63;6251324;28;20548;-74
2021/10/12 05:23:38;;;;;;;21.53;16.63;;;;;;;6.34;84.02;97835.75;6258751;28;20195;-74
2021/10/12 05:26:41;;;;;;;22.13;17.00;;;;;;;6.36;84.32;97840.91;6238449;28;20200;-73
2021/10/12 05:29:44;;;;;;;23.17;17.00;;;;;;;6.41;83.98;97842.31;6239469;28;20247;-73
2021/10/12 05:32:46;;;;;;;22.67;17.50;;;;;;;6.40;84.22;97832.75;6256991;28;20318;-74
2021/10/12 05:35:49;;;;;;;20.87;16.97;;;;;;;6.39;83.61;97836.31;6241100;28;20686;-73
2021/10/12 05:38:51;;;;;;;31.13;23.07;;;;;;;6.48;84.31;97827.91;6238384;28;20217;-73
2021/10/12 05:41:53;;;;;;;26.67;19.17;;;;;;;6.64;84.26;97826.03;6252335;28;20215;-73
2021/10/12 05:44:55;;;;;;;25.73;20.03;;;;;;;6.78;83.48;97829.56;6258605;28;20560;-73
2021/10/12 05:47:59;;;;;;;29.83;20.37;;;;;;;6.88;83.88;97825.44;6256423;28;20189;-73
2021/10/12 05:51:01;;;;;;;27.60;20.63;;;;;;;6.99;83.14;97818.53;6254072;28;20205;-74
2021/10/12 05:54:05;;;;;;;25.13;19.40;;;;;;;7.03;82.99;97820.03;6254484;28;20730;-73
2021/10/12 05:57:08;;;;;;;21.87;17.97;;;;;;;7.01;82.65;97823.69;6238635;28;20761;-73
2021/10/12 06:00:10;;;;;;;31.67;21.00;;;;;;;6.96;82.78;97818.75;6253481;28;20251;-74
2021/10/12 06:03:15;;;;;;;23.93;16.77;;;;;;;7.02;82.65;97823.59;6235646;28;20184;-73
2021/10/12 06:06:17;;;;;;;23.83;17.87;;;;;;;7.04;82.46;97829.59;6257890;28;20668;-73
2021/10/12 06:09:19;;;;;;;30.20;19.37;;;;;;;7.08;82.66;97838.13;6238803;28;20205;-73
2021/10/12 06:12:21;;;;;;;24.10;17.57;;;;;;;7.07;82.43;97836.44;6256707;28;20325;-74
2021/10/12 06:15:23;;;;;;;26.93;19.53;;;;;;;7.11;82.55;97842.31;6239001;28;20234;-73
2021/10/12 06:18:26;;;;;;;24.90;18.43;;;;;;;7.18;82.02;97843.63;6238266;28;20192;-73
2021/10/12 06:21:28;;;;;;;22.40;15.63;;;;;;;7.19;82.28;97838.25;6244749;28;20263;-73
2021/10/12 06:24:30;;;;;;;18.97;14.10;;;;;;;7.20;81.84;97836.47;6240086;28;20193;-74
2021/10/12 06:27:32;;;;;;;19.83;14.93;;;;;;;7.17;81.81;97840.16;6261262;28;20218;-74
2021/10/12 06:30:34;;;;;;;26.07;19.43;;;;;;;7.13;82.38;97840.44;6255271;28;20221;-74
2021/10/12 06:33:37;;;;;;;25.40;19.23;;;;;;;7.15;82.01;97843.81;6259050;28;20248;-73
2021/10/12 06:36:41;;;;;;;24.13;17.70;;;;;;;7.25;81.40;97842.28;6262358;28;20578;-73
2021/10/12 06:39:43;;;;;;;25.03;17.00;;;;;;;7.37;81.30;97844.97;6260959;28;20209;-73
2021/10/12 06:42:45;;;;;;;23.13;17.03;;;;;;;7.53;80.37;97854.47;6243445;28;20195;-74
2021/10/12 06:45:47;;;;;;;22.47;16.10;;;;;;;7.69;80.09;97857.75;6242011;28;20622;-76
2021/10/12 06:48:49;;;;;;;25.53;18.23;;;;;;;7.82;78.89;97853.41;6261048;28;20263;-75
2021/10/12 06:51:51;;;;;;;24.07;17.13;;;;;;;7.94;79.06;97849.09;6258136;28;20192;-75
2021/10/12 06:54:54;;;;;;;22.37;16.97;;;;;;;8.03;78.60;97859.00;6255897;28;20195;-76
2021/10/12 06:57:56;;;;;;;23.13;17.27;;;;;;;8.13;78.04;97862.69;6241620;28;20198;-75
2021/10/12 07:00:58;;;;;;;20.40;16.07;;;;;;;8.25;77.97;97858.41;6240806;28;20213;-74
2021/10/12 07:04:00;;;;;;;22.87;16.30;;;;;;;8.34;78.02;97863.06;6241478;28;20202;-73
2021/10/12 07:07:02;;;;;;;23.60;15.03;;;;;;;8.39;76.81;97859.16;6241488;28;20800;-74
2021/10/12 07:10:07;;;;;;;19.30;14.47;;;;;;;8.49;76.79;97869.88;6240626;28;20187;-73
2021/10/12 07:13:11;;;;;;;19.33;14.20;;;;;;;8.54;76.68;97862.53;6222414;28;20578;-74
2021/10/12 07:16:16;;;;;;;17.37;13.10;;;;;;;8.63;76.29;97863.69;6255302;28;20198;-73
2021/10/12 07:19:18;;;;;;;19.63;14.60;;;;;;;8.72;75.84;97868.31;6241143;28;20209;-73
2021/10/12 07:22:23;;;;;;;17.00;12.60;;;;;;;8.79;75.60;97861.66;6261539;28;20189;-73
2021/10/12 07:25:25;;;;;;;16.53;13.10;;;;;;;8.83;74.95;97857.88;6259316;28;20191;-73
2021/10/12 07:28:27;;;;;;;17.47;13.63;;;;;;;8.90;74.66;97845.94;6258470;28;20300;-75
2021/10/12 07:31:29;;;;;;;17.50;13.50;;;;;;;9.04;74.11;97852.88;6260977;28;20220;-75
2021/10/12 07:34:31;;;;;;;16.27;12.07;;;;;;;9.21;73.61;97848.06;6257114;28;20229;-75
2021/10/12 07:37:34;;;;;;;15.17;12.23;;;;;;;9.34;72.65;97848.03;6258606;28;20546;-75
2021/10/12 07:40:38;;;;;;;14.87;12.00;;;;;;;9.34;73.43;97848.03;6243349;28;20214;-75
2021/10/12 07:43:41;;;;;;;14.40;10.63;;;;;;;9.47;72.51;97848.00;6241810;28;20580;-75
2021/10/12 07:46:43;;;;;;;14.73;11.97;;;;;;;9.66;72.35;97855.38;6240282;28;20318;-75
2021/10/12 07:49:45;;;;;;;16.23;11.47;;;;;;;9.91;70.90;97849.97;6241769;28;20218;-75
2021/10/12 07:52:47;;;;;;;13.97;11.43;;;;;;;10.06;70.47;97842.72;6244792;28;20191;-75
2021/10/12 07:55:55;;;;;;;13.97;11.37;;;;;;;10.13;70.56;97851.81;6256041;28;20187;-75
2021/10/12 07:58:57;;;;;;;17.23;11.63;;;;;;;10.06;69.81;97842.72;6237023;28;20203;-75
2021/10/12 08:01:59;;;;;;;14.47;10.47;;;;;;;10.26;69.29;97829.72;6259921;28;20199;-75
2021/10/12 08:05:01;;;;;;;13.17;10.43;;;;;;;10.51;68.76;97817.25;6241153;28;20225;-75
2021/10/12 08:08:04;;;;;;;13.50;10.47;;;;;;;10.71;67.94;97824.47;6240475;28;20254;-75
2021/10/12 08:11:06;;;;;;;13.10;10.37;;;;;;;10.81;67.37;97820.13;6241260;28;20709;-75
2021/10/12 08:14:10;;;;;;;12.43;8.43;;;;;;;11.04;67.37;97816.50;6259378;28;20679;-75
2021/10/12 08:17:16;;;;;;;12.67;9.13;;;;;;;11.17;66.58;97818.19;6241479;28;20587;-75
2021/10/12 08:20:18;;;;;;;14.00;9.90;;;;;;;10.64;66.92;97818.81;6258303;28;20199;-75
2021/10/12 08:23:20;;;;;;;11.27;9.43;;;;;;;10.40;67.09;97811.97;6239102;28;20229;-75
2021/10/12 08:26:22;;;;;;;12.87;9.80;;;;;;;10.43;67.29;97827.56;6256720;28;20202;-74
2021/10/12 08:29:24;;;;;;;12.07;9.37;;;;;;;10.30;67.19;97820.59;6255570;28;21054;-74
2021/10/12 08:32:26;;;;;;;12.77;8.93;;;;;;;10.15;67.14;97813.00;6257074;28;20188;-74
2021/10/12 08:35:28;;;;;;;9.83;8.13;;;;;;;9.85;68.05;97813.53;6257017;28;20194;-73
2021/10/12 08:38:32;;;;;;;13.23;9.30;;;;;;;9.72;68.14;97810.97;6258935;28;20566;-74
2021/10/12 08:41:47;;;;;;;9.63;7.33;;;;;;;9.69;69.11;97812.97;6254960;28;20199;-74
2021/10/12 08:45:00;;;;;;;11.67;7.93;;;;;;;9.59;68.96;97813.66;6256537;28;20664;-74
2021/10/12 08:48:05;;;;;;;8.50;7.30;;;;;;;9.62;69.73;97820.50;6256454;28;20210;-74
2021/10/12 08:51:08;;;;;;;8.73;7.07;;;;;;;9.58;70.01;97811.97;6257860;28;20195;-74
2021/10/12 08:54:14;;;;;;;8.13;6.17;;;;;;;9.68;70.03;97812.16;6257159;28;20266;-74
2021/10/12 08:57:33;;;;;;;8.43;7.30;;;;;;;9.65;69.85;97812.38;6237432;28;20188;-74
2021/10/12 09:00:35;;;;;;;10.37;6.83;;;;;;;9.58;69.28;97808.53;6237385;28;20230;-71
2021/10/12 09:07:00;;;;;;;9.37;6.43;;;;;;;9.66;69.93;97803.53;6237630;28;20197;-71
2021/10/12 09:10:02;;;;;;;9.13;6.70;;;;;;;9.82;69.95;97803.19;6254435;28;20203;-72
2021/10/12 09:13:07;;;;;;;7.37;5.97;;;;;;;9.99;69.66;97800.13;6256962;28;20597;-72
2021/10/12 09:16:15;;;;;;;9.43;5.87;;;;;;;10.10;69.67;97801.94;6254880;28;20194;-72
2021/10/12 09:19:19;;;;;;;11.63;7.00;;;;;;;9.89;69.15;97804.41;6251913;28;20690;-72
2021/10/12 09:22:22;;;;;;;10.37;6.20;;;;;;;10.07;68.39;97803.03;6259174;28;20215;-72
2021/10/12 09:25:36;;;;;;;9.07;5.73;;;;;;;10.21;68.37;97802.84;6239166;28;20539;-72
2021/10/12 09:28:38;;;;;;;8.97;6.67;;;;;;;10.11;68.51;97798.34;6253614;28;20235;-73
2021/10/12 09:31:45;;;;;;;11.40;6.13;;;;;;;10.26;68.66;97807.78;6258050;28;20186;-72
2021/10/12 09:35:01;;;;;;;10.30;6.63;;;;;;;10.33;67.23;97799.25;6256459;28;20232;-72
2021/10/12 09:38:09;;;;;;;11.13;7.53;;;;;;;10.22;68.23;97788.69;6255767;28;20693;-72
2021/10/12 09:41:12;;;;;;;9.13;6.47;;;;;;;10.16;68.78;97793.59;6258432;28;20223;-72
2021/10/12 09:44:18;;;;;;;8.80;5.97;;;;;;;10.13;68.83;97793.81;6236317;28;20237;-73
2021/10/12 09:47:22;;;;;;;7.93;6.00;;;;;;;10.16;68.56;97785.66;6256908;28;20591;-73
2021/10/12 09:50:31;;;;;;;10.93;7.37;;;;;;;10.22;69.13;97782.59;6236591;28;20192;-72
2021/10/12 09:53:33;;;;;;;12.93;7.50;;;;;;;10.18;69.00;97779.34;6254942;28;20231;-72
2021/10/12 09:56:36;;;;;;;8.43;5.93;;;;;;;10.26;68.51;97776.97;6257763;28;20190;-72
2021/10/12 09:59:38;;;;;;;9.93;6.27;;;;;;;10.40;69.06;97772.41;6259237;28;20195;-72
2021/10/12 10:02:40;;;;;;;10.90;6.00;;;;;;;10.37;68.33;97767.38;6261525;28;20292;-73
2021/10/12 10:05:44;;;;;;;7.97;6.10;;;;;;;10.53;67.86;97767.84;6262002;28;20244;-72
2021/10/12 10:08:51;;;;;;;7.87;6.03;;;;;;;10.55;68.44;97756.22;6262221;28;20196;-73
2021/10/12 10:12:08;;;;;;;9.03;6.00;;;;;;;10.59;67.69;97736.53;6244367;28;20229;-72
2021/10/12 10:15:10;;;;;;;10.57;5.17;;;;;;;11.24;66.66;97748.88;6244612;28;20287;-72
2021/10/12 10:18:13;;;;;;;7.27;5.30;;;;;;;11.70;64.52;97740.59;6244511;28;20551;-73
2021/10/12 10:21:17;;;;;;;9.67;6.17;;;;;;;12.30;61.00;97739.03;6258771;28;20199;-74
2021/10/12 10:24:45;;;;;;;8.30;5.30;;;;;;;12.93;60.62;97721.97;6258955;28;20199;-74
2021/10/12 10:27:47;;;;;;;7.03;5.37;;;;;;;12.62;60.16;97730.09;6242202;28;20213;-73
2021/10/12 10:30:53;;;;;;;7.70;5.00;;;;;;;12.69;60.85;97739.16;6258726;28;20229;-74
2021/10/12 10:33:55;;;;;;;7.07;4.40;;;;;;;13.16;60.07;97727.88;6234721;28;20664;-74
2021/10/12 10:37:15;;;;;;;9.00;5.00;;;;;;;13.45;59.34;97722.59;6257560;28;20210;-74
2021/10/12 10:40:27;;;;;;;6.30;4.20;;;;;;;13.84;58.46;97711.94;6258124;28;20212;-74
2021/10/12 10:43:56;;;;;;;6.77;3.80;;;;;;;14.40;55.97;97706.63;6242405;28;20287;-74
2021/10/12 10:46:59;;;;;;;5.30;4.30;;;;;;;14.27;56.61;97706.09;6259402;28;20190;-74
2021/10/12 10:50:23;;;;;;;6.37;4.87;;;;;;;13.87;56.01;97695.75;6240043;28;20198;-75
2021/10/12 10:53:38;;;;;;;5.77;4.70;;;;;;;13.57;57.99;97694.97;6243889;28;20237;-74
2021/10/12 10:57:07;;;;;;;7.63;5.17;;;;;;;13.49;58.83;97691.31;6259590;28;20199;-75
2021/10/12 11:00:12;;;;;;;7.73;4.50;;;;;;;13.46;57.75;97688.97;6260278;28;20199;-74
2021/10/12 11:03:35;;;;;;;6.73;4.80;;;;;;;13.60;58.55;97681.41;6259206;28;20686;-74
2021/10/12 11:06:37;;;;;;;7.77;5.70;;;;;;;13.54;57.38;97686.44;6240067;28;20223;-74
2021/10/12 11:09:43;;;;;;;8.80;6.20;;;;;;;13.53;57.44;97674.16;6243103;28;20567;-75
2021/10/12 11:12:45;;;;;;;7.40;4.90;;;;;;;13.56;57.84;97665.94;6259021;28;20673;-76
2021/10/12 11:15:49;;;;;;;8.77;5.70;;;;;;;13.40;58.34;97663.84;6260096;28;20195;-75
2021/10/12 11:19:00;;;;;;;7.93;5.20;;;;;;;13.25;58.97;97665.25;6258816;28;20202;-75
2021/10/12 11:22:03;;;;;;;7.43;5.53;;;;;;;13.12;58.69;97656.72;6258178;28;20211;-75
2021/10/12 11:25:05;;;;;;;8.13;6.17;;;;;;;12.86;58.80;97649.31;6245958;28;20209;-75
2021/10/12 11:28:12;;;;;;;6.23;4.67;;;;;;;12.78;59.98;97656.25;6257287;28;20219;-74
2021/10/12 11:31:17;;;;;;;7.17;4.70;;;;;;;12.78;60.13;97650.97;6206889;28;20227;-74
2021/10/12 11:34:25;;;;;;;6.27;4.67;;;;;;;12.75;60.48;97651.25;6206263;28;20209;-74
2021/10/12 11:37:28;;;;;;;6.33;4.70;;;;;;;12.78;60.06;97645.66;6224804;28;20202;-74
2021/10/12 11:40:30;;;;;;;7.30;4.50;;;;;;;12.82;60.13;97644.44;6210361;28;20685;-74
2021/10/12 11:43:37;;;;;;;8.03;5.00;;;;;;;12.73;59.09;97638.16;6212684;28;20192;-74
2021/10/12 11:46:47;;;;;;;6.70;5.00;;;;;;;12.62;60.12;97638.28;6209799;28;20268;-74
2021/10/12 11:49:49;;;;;;;5.47;4.47;;;;;;;12.65;59.94;97639.81;6210223;28;20265;-74
2021/10/12 11:52:53;;;;;;;5.77;4.33;;;;;;;12.33;59.85;97642.66;6210099;28;20191;-74
2021/10/12 11:56:06;;;;;;;5.57;4.27;;;;;;;12.15;59.79;97629.25;6205564;28;20291;-74
2021/10/12 11:59:12;;;;;;;4.27;3.87;;;;;;;12.06;60.87;97635.34;6225254;28;20199;-74
2021/10/12 12:02:20;;;;;;;4.87;3.67;;;;;;;12.22;61.19;97635.66;6191325;28;20216;-74
2021/10/12 12:05:22;;;;;;;5.40;4.13;;;;;;;12.24;61.13;97624.94;6224820;28;20200;-74
2021/10/12 12:08:31;;;;;;;6.10;4.50;;;;;;;11.90;61.28;97619.09;6224162;28;20211;-74
2021/10/12 12:11:34;;;;;;;5.27;4.17;;;;;;;11.96;61.63;97618.59;6211357;28;20600;-75
2021/10/12 12:14:36;;;;;;;4.30;3.47;;;;;;;12.12;61.18;97616.28;6222411;28;20209;-75
2021/10/12 12:17:39;;;;;;;4.67;3.43;;;;;;;12.37;60.54;97607.88;6209215;28;20694;-75
2021/10/12 12:20:59;;;;;;;4.20;3.37;;;;;;;12.69;60.78;97601.47;6208254;28;20294;-75
2021/10/12 12:24:02;;;;;;;4.83;3.10;;;;;;;12.91;60.09;97596.75;6222931;28;20670;-75
2021/10/12 12:27:04;;;;;;;3.83;3.47;;;;;;;12.92;59.56;97589.66;6208741;28;20253;-74
2021/10/12 12:30:09;;;;;;;5.00;3.60;;;;;;;12.74;59.76;97599.25;6237479;28;20234;-74
2021/10/12 12:33:11;;;;;;;3.23;2.93;;;;;;;12.54;60.10;97601.91;6240489;28;20681;-75
2021/10/12 12:36:15;;;;;;;3.93;3.20;;;;;;;12.59;60.35;97585.59;6238401;28;20707;-75
2021/10/12 12:39:17;;;;;;;4.13;2.73;;;;;;;12.57;60.36;97582.25;6257501;28;20181;-75
2021/10/12 12:42:48;;;;;;;3.47;2.83;;;;;;;12.43;60.45;97583.50;6257400;28;20760;-75
2021/10/12 12:46:26;;;;;;;4.67;3.27;;;;;;;12.33;60.94;97579.16;6240315;28;20204;-75
2021/10/12 12:49:29;;;;;;;4.70;3.53;;;;;;;12.09;60.60;97571.56;6151017;28;20234;-74
2021/10/12 12:52:34;;;;;;;4.10;3.50;;;;;;;12.24;61.38;97569.38;6136000;29;20195;-74
2021/10/12 12:55:41;;;;;;;5.20;3.80;;;;;;;12.18;61.50;97565.47;6138712;29;20194;-74
2021/10/12 12:58:45;;;;;;;4.83;3.90;;;;;;;12.13;60.87;97567.69;6135467;29;20213;-74
2021/10/12 13:01:51;;;;;;;5.13;3.70;;;;;;;12.16;61.23;97570.06;6135293;29;20269;-73
2021/10/12 13:04:54;;;;;;;3.63;3.00;;;;;;;12.24;61.09;97564.94;6136291;29;20255;-73
2021/10/12 13:07:56;;;;;;;4.87;3.10;;;;;;;12.31;61.42;97560.75;6140363;29;20566;-73
2021/10/12 13:10:58;;;;;;;3.73;2.80;;;;;;;12.42;61.60;97563.28;6134966;29;20229;-72
2021/10/12 13:14:01;;;;;;;4.20;3.37;;;;;;;12.47;61.78;97553.13;6133742;28;20587;-73
2021/10/12 13:17:03;;;;;;;4.37;2.97;;;;;;;12.50;61.23;97555.50;6136175;29;20286;-73
2021/10/12 13:20:07;;;;;;;4.07;2.90;;;;;;;12.49;60.67;97555.63;6136779;29;20211;-73
2021/10/12 13:23:09;;;;;;;3.63;3.20;;;;;;;12.45;60.28;97552.44;6190019;28;20701;-72
2021/10/12 13:26:11;;;;;;;4.20;2.87;;;;;;;12.54;60.38;97554.25;6258271;28;20190;-72
2021/10/12 13:29:13;;;;;;;4.10;2.67;;;;;;;12.72;60.86;97554.38;6238014;28;20591;-73
2021/10/12 13:32:17;;;;;;;3.57;2.53;;;;;;;12.66;60.82;97551.47;6255911;28;20193;-72
2021/10/12 13:35:20;;;;;;;3.30;2.73;;;;;;;12.54;61.25;97551.59;6257024;28;20225;-72
2021/10/12 13:38:24;;;;;;;4.70;3.97;;;;;;;12.49;59.72;97548.50;6256937;28;20196;-72
2021/10/12 13:41:26;;;;;;;4.27;3.73;;;;;;;12.37;60.76;97547.00;6236871;28;20218;-72
2021/10/12 13:44:28;;;;;;;5.73;4.10;;;;;;;12.39;60.51;97539.72;6256567;28;20216;-72
2021/10/12 13:47:30;;;;;;;5.80;4.33;;;;;;;13.02;58.23;97532.19;6257517;28;20187;-72
2021/10/12 13:50:34;;;;;;;4.13;3.43;;;;;;;13.06;59.00;97524.81;6256161;28;20269;-72
2021/10/12 13:53:37;;;;;;;5.37;3.77;;;;;;;13.23;58.58;97524.09;6236041;28;20205;-72
2021/10/12 13:56:39;;;;;;;7.03;4.63;;;;;;;12.83;58.97;97514.53;6256330;28;20255;-72
2021/10/12 13:59:41;;;;;;;4.17;3.70;;;;;;;12.88;59.09;97525.50;6239642;28;20565;-72
2021/10/12 14:02:43;;;;;;;5.53;4.47;;;;;;;12.61;59.03;97517.44;6257826;28;20768;-72
2021/10/12 14:05:46;;;;;;;5.13;3.83;;;;;;;12.43;59.22;97522.63;6254940;28;20675;-72
2021/10/12 14:08:48;;;;;;;5.37;4.00;;;;;;;12.39;60.70;97533.59;6256432;28;20193;-72
2021/10/12 14:11:50;;;;;;;3.37;2.60;;;;;;;12.03;60.86;97520.06;6255995;28;20193;-72
2021/10/12 14:14:53;;;;;;;2.73;2.50;;;;;;;11.64;60.91;97524.38;6237758;28;20521;-72
2021/10/12 14:17:55;;;;;;;2.20;1.90;;;;;;;11.61;61.49;97531.72;6252835;28;20291;-72
2021/10/12 14:20:57;;;;;;;1.57;1.43;;;;;;;11.56;61.71;97529.47;6255783;28;20206;-72
2021/10/12 14:24:00;;;;;;;1.97;1.57;;;;;;;11.37;61.68;97529.41;6244374;28;20203;-72